Star Trek: Starfleet Academy

Информация о пользователе

Привет, Гость! Войдите или зарегистрируйтесь.


Вы здесь » Star Trek: Starfleet Academy » Партнерство


Партнерство

Тем 1 страница 20 из 20

Тема Ответов Просмотров Последнее сообщение
1 Важно: Star Wars Medley  Joan Crise
23 94 2018-08-12 15:39:01  PR
129 559 2018-08-02 15:17:40  PR
62 909 2018-07-21 20:44:07  PR
4 Важно: Space Fiction  Joan Crise
9 48 2018-07-16 20:01:40  PR
5 Важно: Star Wars: Decadence  Joan Crise
3 9 2018-04-29 19:17:32  PR
6 Важно: Закрыта Мы в каталогах  Starfleet Academy
0 251 2015-04-14 22:02:16  Starfleet Academy
29 374 2018-08-07 01:43:21  PR
43 223 2018-08-03 03:58:12  PR
9 New Jersey  Joan Crise
3 41 2018-06-25 22:34:08  PR
20 114 2018-03-02 23:09:05  PR
36 174 2018-01-11 10:08:15  PR
12 Planetary Moe  Joan Crise
6 35 2017-12-05 13:43:28  PR
77 271 2017-08-18 14:23:04  PR
32 126 2017-07-17 18:24:40  PR
40 176 2017-06-01 21:26:44  PR
17 75 2017-04-01 00:30:50  PR
19 123 2017-02-05 09:59:51  PR
18 Мийрон  Joan Crise
5 55 2016-02-25 22:43:03  Мийрон
19 Serifa  Joan Crise
0 19 2015-10-09 11:21:51  Joan Crise
2 223 2015-04-03 10:51:12  PR

Вы здесь » Star Trek: Starfleet Academy » Партнерство


Рейтинг форумов | Создать форум бесплатно © 2007–2017 «QuadroSystems» LLC